sensor_id;sensor_type;location;lat;lon;timestamp;pressure;altitude;pressure_sealevel;temperature;humidity
78839;BME280;68405;47.190;27.558;2023-04-28T00:00:09;100012.64;;;3.86;65.50
78839;BME280;68405;47.190;27.558;2023-04-28T00:02:59;100020.73;;;3.82;65.23
78839;BME280;68405;47.190;27.558;2023-04-28T00:05:27;100014.56;;;3.78;64.42
78839;BME280;68405;47.190;27.558;2023-04-28T00:07:56;100017.33;;;3.77;63.69
78839;BME280;68405;47.190;27.558;2023-04-28T00:10:25;100011.30;;;3.77;63.53
78839;BME280;68405;47.190;27.558;2023-04-28T00:12:54;100012.66;;;3.78;64.95
78839;BME280;68405;47.190;27.558;2023-04-28T00:15:24;100012.16;;;3.78;63.62
78839;BME280;68405;47.190;27.558;2023-04-28T00:17:53;100012.67;;;3.77;64.53
78839;BME280;68405;47.190;27.558;2023-04-28T00:20:22;100014.23;;;3.75;65.16
78839;BME280;68405;47.190;27.558;2023-04-28T00:22:52;100017.51;;;3.74;65.35
78839;BME280;68405;47.190;27.558;2023-04-28T00:25:21;100022.31;;;3.72;65.91
78839;BME280;68405;47.190;27.558;2023-04-28T00:27:49;100022.84;;;3.70;65.01
78839;BME280;68405;47.190;27.558;2023-04-28T00:30:19;100017.52;;;3.69;65.49
78839;BME280;68405;47.190;27.558;2023-04-28T00:32:48;100023.19;;;3.69;65.05
78839;BME280;68405;47.190;27.558;2023-04-28T00:35:18;100024.06;;;3.67;65.49
78839;BME280;68405;47.190;27.558;2023-04-28T00:37:47;100028.36;;;3.65;65.18
78839;BME280;68405;47.190;27.558;2023-04-28T00:40:16;100030.09;;;3.61;65.41
78839;BME280;68405;47.190;27.558;2023-04-28T00:42:45;100028.05;;;3.58;66.98
78839;BME280;68405;47.190;27.558;2023-04-28T00:45:15;100031.48;;;3.57;66.51
78839;BME280;68405;47.190;27.558;2023-04-28T00:47:44;100032.69;;;3.57;65.63
78839;BME280;68405;47.190;27.558;2023-04-28T00:50:13;100030.96;;;3.55;67.22
78839;BME280;68405;47.190;27.558;2023-04-28T00:52:42;100030.45;;;3.52;67.28
78839;BME280;68405;47.190;27.558;2023-04-28T00:55:14;100029.44;;;3.50;66.98
78839;BME280;68405;47.190;27.558;2023-04-28T00:57:43;100029.62;;;3.49;66.76
78839;BME280;68405;47.190;27.558;2023-04-28T01:00:15;100030.81;;;3.48;66.66
78839;BME280;68405;47.190;27.558;2023-04-28T01:02:44;100033.91;;;3.47;67.23
78839;BME280;68405;47.190;27.558;2023-04-28T01:05:13;100036.33;;;3.44;67.55
78839;BME280;68405;47.190;27.558;2023-04-28T01:07:43;100034.44;;;3.43;66.92
78839;BME280;68405;47.190;27.558;2023-04-28T01:10:12;100031.20;;;3.42;66.75
78839;BME280;68405;47.190;27.558;2023-04-28T01:12:41;100037.38;;;3.39;66.80
78839;BME280;68405;47.190;27.558;2023-04-28T01:15:15;100034.29;;;3.37;67.94
78839;BME280;68405;47.190;27.558;2023-04-28T01:17:45;100033.25;;;3.36;67.60
78839;BME280;68405;47.190;27.558;2023-04-28T01:20:14;100031.89;;;3.35;67.65
78839;BME280;68405;47.190;27.558;2023-04-28T01:22:43;100030.00;;;3.35;67.25
78839;BME280;68405;47.190;27.558;2023-04-28T01:25:11;100031.54;;;3.35;67.50
78839;BME280;68405;47.190;27.558;2023-04-28T01:27:40;100031.38;;;3.35;67.06
78839;BME280;68405;47.190;27.558;2023-04-28T01:30:10;100030.00;;;3.32;66.61
78839;BME280;68405;47.190;27.558;2023-04-28T01:32:39;100029.49;;;3.30;66.42
78839;BME280;68405;47.190;27.558;2023-04-28T01:35:09;100031.21;;;3.29;68.92
78839;BME280;68405;47.190;27.558;2023-04-28T01:37:38;100031.89;;;3.30;68.33
78839;BME280;68405;47.190;27.558;2023-04-28T01:40:09;100030.38;;;3.27;67.99
78839;BME280;68405;47.190;27.558;2023-04-28T01:42:38;100030.70;;;3.23;69.21
78839;BME280;68405;47.190;27.558;2023-04-28T01:45:10;100032.27;;;3.23;68.30
78839;BME280;68405;47.190;27.558;2023-04-28T01:47:39;100031.40;;;3.22;69.52
78839;BME280;68405;47.190;27.558;2023-04-28T01:50:09;100034.30;;;3.23;69.78
78839;BME280;68405;47.190;27.558;2023-04-28T01:52:38;100034.99;;;3.26;70.01
78839;BME280;68405;47.190;27.558;2023-04-28T01:55:08;100035.35;;;3.23;69.40
78839;BME280;68405;47.190;27.558;2023-04-28T01:57:37;100040.33;;;3.20;70.06
78839;BME280;68405;47.190;27.558;2023-04-28T02:00:06;100041.89;;;3.17;70.26
78839;BME280;68405;47.190;27.558;2023-04-28T02:02:36;100044.29;;;3.15;71.46
78839;BME280;68405;47.190;27.558;2023-04-28T02:05:07;100041.71;;;3.17;70.36
78839;BME280;68405;47.190;27.558;2023-04-28T02:07:36;100046.86;;;3.15;70.07
78839;BME280;68405;47.190;27.558;2023-04-28T02:10:07;100049.95;;;3.13;69.56
78839;BME280;68405;47.190;27.558;2023-04-28T02:12:36;100051.84;;;3.10;70.33
78839;BME280;68405;47.190;27.558;2023-04-28T02:15:07;100052.36;;;3.09;70.91
78839;BME280;68405;47.190;27.558;2023-04-28T02:17:36;100055.96;;;3.05;71.07
78839;BME280;68405;47.190;27.558;2023-04-28T02:20:08;100052.04;;;3.02;71.99
78839;BME280;68405;47.190;27.558;2023-04-28T02:22:37;100052.73;;;2.99;69.94
78839;BME280;68405;47.190;27.558;2023-04-28T02:25:08;100052.03;;;2.97;71.41
78839;BME280;68405;47.190;27.558;2023-04-28T02:27:37;100055.98;;;2.96;71.59
78839;BME280;68405;47.190;27.558;2023-04-28T02:30:08;100057.01;;;2.97;71.80
78839;BME280;68405;47.190;27.558;2023-04-28T02:32:37;100061.64;;;2.94;71.14
78839;BME280;68405;47.190;27.558;2023-04-28T02:35:08;100060.10;;;2.92;72.39
78839;BME280;68405;47.190;27.558;2023-04-28T02:37:36;100065.58;;;2.90;71.62
78839;BME280;68405;47.190;27.558;2023-04-28T02:40:08;100063.53;;;2.86;72.24
78839;BME280;68405;47.190;27.558;2023-04-28T02:42:37;100066.10;;;2.84;72.96
78839;BME280;68405;47.190;27.558;2023-04-28T02:45:08;100071.59;;;2.81;71.41
78839;BME280;68405;47.190;27.558;2023-04-28T02:47:37;100072.77;;;2.77;73.40
78839;BME280;68405;47.190;27.558;2023-04-28T02:50:08;100074.84;;;2.73;72.73
78839;BME280;68405;47.190;27.558;2023-04-28T02:52:38;100073.13;;;2.69;72.21
78839;BME280;68405;47.190;27.558;2023-04-28T02:55:08;100077.41;;;2.68;72.98
78839;BME280;68405;47.190;27.558;2023-04-28T02:57:37;100078.95;;;2.66;73.21
78839;BME280;68405;47.190;27.558;2023-04-28T03:00:09;100079.81;;;2.65;72.32
78839;BME280;68405;47.190;27.558;2023-04-28T03:02:38;100081.36;;;2.64;72.19
78839;BME280;68405;47.190;27.558;2023-04-28T03:05:09;100082.73;;;2.65;71.78
78839;BME280;68405;47.190;27.558;2023-04-28T03:07:38;100083.42;;;2.65;72.26
78839;BME280;68405;47.190;27.558;2023-04-28T03:10:09;100088.73;;;2.65;72.88
78839;BME280;68405;47.190;27.558;2023-04-28T03:12:38;100088.55;;;2.66;73.76
78839;BME280;68405;47.190;27.558;2023-04-28T03:15:09;100086.33;;;2.68;73.14
78839;BME280;68405;47.190;27.558;2023-04-28T03:17:38;100088.56;;;2.72;73.96
78839;BME280;68405;47.190;27.558;2023-04-28T03:20:11;100097.48;;;2.76;74.10
78839;BME280;68405;47.190;27.558;2023-04-28T03:22:40;100104.69;;;2.79;73.52
78839;BME280;68405;47.190;27.558;2023-04-28T03:25:10;100107.27;;;2.80;73.07
78839;BME280;68405;47.190;27.558;2023-04-28T03:27:39;100103.48;;;2.83;73.59
78839;BME280;68405;47.190;27.558;2023-04-28T03:30:10;100103.84;;;2.86;73.83
78839;BME280;68405;47.190;27.558;2023-04-28T03:32:39;100109.84;;;2.89;72.91
78839;BME280;68405;47.190;27.558;2023-04-28T03:35:09;100111.56;;;2.91;72.61
78839;BME280;68405;47.190;27.558;2023-04-28T03:37:38;100112.41;;;2.94;73.10
78839;BME280;68405;47.190;27.558;2023-04-28T03:40:10;100114.83;;;2.99;72.92
78839;BME280;68405;47.190;27.558;2023-04-28T03:42:39;100112.08;;;3.05;72.35
78839;BME280;68405;47.190;27.558;2023-04-28T03:45:10;100113.80;;;3.11;73.19
78839;BME280;68405;47.190;27.558;2023-04-28T03:47:39;100116.89;;;3.18;72.38
78839;BME280;68405;47.190;27.558;2023-04-28T03:50:09;100118.07;;;3.26;72.43
78839;BME280;68405;47.190;27.558;2023-04-28T03:52:39;100121.67;;;3.34;72.16
78839;BME280;68405;47.190;27.558;2023-04-28T03:55:09;100125.27;;;3.49;71.63
78839;BME280;68405;47.190;27.558;2023-04-28T03:57:38;100128.83;;;3.67;70.80
78839;BME280;68405;47.190;27.558;2023-04-28T04:00:11;100126.47;;;4.06;69.75
78839;BME280;68405;47.190;27.558;2023-04-28T04:02:40;100129.25;;;4.39;68.75
78839;BME280;68405;47.190;27.558;2023-04-28T04:05:10;100132.38;;;4.67;67.94
78839;BME280;68405;47.190;27.558;2023-04-28T04:07:39;100132.77;;;4.86;67.06
78839;BME280;68405;47.190;27.558;2023-04-28T04:10:10;100134.36;;;5.02;66.75
78839;BME280;68405;47.190;27.558;2023-04-28T04:12:39;100134.17;;;5.25;65.55
78839;BME280;68405;47.190;27.558;2023-04-28T04:15:10;100137.10;;;5.62;64.50
78839;BME280;68405;47.190;27.558;2023-04-28T04:17:40;100134.45;;;6.03;63.28
78839;BME280;68405;47.190;27.558;2023-04-28T04:20:10;100137.66;;;6.74;61.31
78839;BME280;68405;47.190;27.558;2023-04-28T04:22:40;100136.28;;;7.59;59.37
78839;BME280;68405;47.190;27.558;2023-04-28T04:25:09;100140.17;;;8.43;56.22
78839;BME280;68405;47.190;27.558;2023-04-28T04:27:38;100138.10;;;9.33;53.31
78839;BME280;68405;47.190;27.558;2023-04-28T04:30:11;100139.73;;;10.22;50.62
78839;BME280;68405;47.190;27.558;2023-04-28T04:32:40;100139.41;;;11.13;49.81
78839;BME280;68405;47.190;27.558;2023-04-28T04:35:10;100138.55;;;11.70;46.73
78839;BME280;68405;47.190;27.558;2023-04-28T04:37:39;100145.16;;;12.33;45.03
78839;BME280;68405;47.190;27.558;2023-04-28T04:40:10;100146.11;;;12.86;43.80
78839;BME280;68405;47.190;27.558;2023-04-28T04:42:40;100142.52;;;13.15;44.21
78839;BME280;68405;47.190;27.558;2023-04-28T04:45:12;100142.55;;;13.69;42.48
78839;BME280;68405;47.190;27.558;2023-04-28T04:47:41;100140.41;;;14.17;39.58
78839;BME280;68405;47.190;27.558;2023-04-28T04:50:11;100145.64;;;14.76;38.76
78839;BME280;68405;47.190;27.558;2023-04-28T04:52:41;100149.38;;;15.42;38.71
78839;BME280;68405;47.190;27.558;2023-04-28T04:55:10;100150.94;;;16.15;36.23
78839;BME280;68405;47.190;27.558;2023-04-28T04:57:39;100147.77;;;16.44;36.11
78839;BME280;68405;47.190;27.558;2023-04-28T05:00:11;100149.41;;;16.97;34.71
78839;BME280;68405;47.190;27.558;2023-04-28T05:02:40;100150.98;;;17.37;34.13
78839;BME280;68405;47.190;27.558;2023-04-28T05:05:10;100148.32;;;18.06;35.06
78839;BME280;68405;47.190;27.558;2023-04-28T05:07:39;100150.47;;;18.46;31.60
78839;BME280;68405;47.190;27.558;2023-04-28T05:10:10;100151.29;;;19.02;32.68
78839;BME280;68405;47.190;27.558;2023-04-28T05:12:39;100151.02;;;19.54;30.32
78839;BME280;68405;47.190;27.558;2023-04-28T05:15:09;100153.80;;;19.76;30.47
78839;BME280;68405;47.190;27.558;2023-04-28T05:17:38;100154.63;;;19.97;28.18
78839;BME280;68405;47.190;27.558;2023-04-28T05:20:09;100156.31;;;20.54;27.96
78839;BME280;68405;47.190;27.558;2023-04-28T05:22:38;100160.15;;;20.94;27.52
78839;BME280;68405;47.190;27.558;2023-04-28T05:25:09;100156.69;;;21.22;26.42
78839;BME280;68405;47.190;27.558;2023-04-28T05:27:38;100163.59;;;21.64;26.59
78839;BME280;68405;47.190;27.558;2023-04-28T05:30:09;100159.09;;;22.18;25.39
78839;BME280;68405;47.190;27.558;2023-04-28T05:32:38;100163.06;;;22.38;24.79
78839;BME280;68405;47.190;27.558;2023-04-28T05:35:08;100162.11;;;22.16;25.12
78839;BME280;68405;47.190;27.558;2023-04-28T05:37:37;100166.77;;;22.38;25.13
78839;BME280;68405;47.190;27.558;2023-04-28T05:40:09;100166.48;;;22.55;25.16
78839;BME280;68405;47.190;27.558;2023-04-28T05:42:39;100171.70;;;22.94;23.66
78839;BME280;68405;47.190;27.558;2023-04-28T05:45:10;100172.19;;;23.07;24.26
78839;BME280;68405;47.190;27.558;2023-04-28T05:47:39;100170.96;;;23.52;23.42
78839;BME280;68405;47.190;27.558;2023-04-28T05:50:10;100175.63;;;23.26;23.69
78839;BME280;68405;47.190;27.558;2023-04-28T05:52:39;100177.05;;;23.28;23.61
78839;BME280;68405;47.190;27.558;2023-04-28T05:55:10;100177.91;;;23.84;22.68
78839;BME280;68405;47.190;27.558;2023-04-28T05:57:39;100182.02;;;24.23;22.64
78839;BME280;68405;47.190;27.558;2023-04-28T06:00:10;100185.15;;;24.44;22.71
78839;BME280;68405;47.190;27.558;2023-04-28T06:02:39;100184.15;;;23.87;22.23
78839;BME280;68405;47.190;27.558;2023-04-28T06:05:09;100184.41;;;23.25;22.69
78839;BME280;68405;47.190;27.558;2023-04-28T06:07:38;100191.42;;;23.69;22.51
78839;BME280;68405;47.190;27.558;2023-04-28T06:10:09;100193.23;;;23.74;22.19
78839;BME280;68405;47.190;27.558;2023-04-28T06:12:38;100193.66;;;23.82;22.23
78839;BME280;68405;47.190;27.558;2023-04-28T06:15:09;100197.52;;;23.95;22.65
78839;BME280;68405;47.190;27.558;2023-04-28T06:17:38;100196.27;;;24.89;22.07
78839;BME280;68405;47.190;27.558;2023-04-28T06:20:10;100200.89;;;25.25;21.18
78839;BME280;68405;47.190;27.558;2023-04-28T06:22:41;100198.38;;;25.11;20.47
78839;BME280;68405;47.190;27.558;2023-04-28T06:25:10;100196.45;;;24.85;20.99
78839;BME280;68405;47.190;27.558;2023-04-28T06:27:39;100194.46;;;24.59;21.57
78839;BME280;68405;47.190;27.558;2023-04-28T06:30:12;100193.44;;;24.18;21.69
78839;BME280;68405;47.190;27.558;2023-04-28T06:32:45;100189.45;;;23.86;21.02
78839;BME280;68405;47.190;27.558;2023-04-28T06:35:15;100195.58;;;24.20;20.79
78839;BME280;68405;47.190;27.558;2023-04-28T06:37:44;100200.52;;;24.77;21.12
78839;BME280;68405;47.190;27.558;2023-04-28T06:40:13;100205.16;;;24.95;20.21
78839;BME280;68405;47.190;27.558;2023-04-28T06:42:42;100205.45;;;25.41;20.14
78839;BME280;68405;47.190;27.558;2023-04-28T06:45:12;100206.69;;;25.93;19.71
78839;BME280;68405;47.190;27.558;2023-04-28T06:47:41;100206.94;;;25.79;19.86
78839;BME280;68405;47.190;27.558;2023-04-28T06:50:10;100203.52;;;26.10;19.33
78839;BME280;68405;47.190;27.558;2023-04-28T06:52:39;100206.53;;;26.24;19.54
78839;BME280;68405;47.190;27.558;2023-04-28T06:55:09;100207.34;;;26.41;18.97
78839;BME280;68405;47.190;27.558;2023-04-28T06:57:38;100204.83;;;26.30;18.76
78839;BME280;68405;47.190;27.558;2023-04-28T07:00:09;100205.77;;;26.45;18.66
78839;BME280;68405;47.190;27.558;2023-04-28T07:02:39;100207.23;;;25.74;19.55
78839;BME280;68405;47.190;27.558;2023-04-28T07:05:09;100205.13;;;26.18;18.92
78839;BME280;68405;47.190;27.558;2023-04-28T07:07:38;100211.79;;;26.23;18.42
78839;BME280;68405;47.190;27.558;2023-04-28T07:10:09;100207.85;;;25.66;18.39
78839;BME280;68405;47.190;27.558;2023-04-28T07:12:38;100205.34;;;25.24;19.12
78839;BME280;68405;47.190;27.558;2023-04-28T07:15:09;100212.98;;;24.48;19.29
78839;BME280;68405;47.190;27.558;2023-04-28T07:17:38;100209.54;;;24.20;19.70
78839;BME280;68405;47.190;27.558;2023-04-28T07:20:09;100212.00;;;23.79;19.79
78839;BME280;68405;47.190;27.558;2023-04-28T07:22:39;100209.70;;;23.62;20.38
78839;BME280;68405;47.190;27.558;2023-04-28T07:25:09;100211.95;;;23.97;20.15
78839;BME280;68405;47.190;27.558;2023-04-28T07:27:38;100213.35;;;23.86;20.06
78839;BME280;68405;47.190;27.558;2023-04-28T07:30:09;100215.99;;;23.67;20.11
78839;BME280;68405;47.190;27.558;2023-04-28T07:32:38;100214.77;;;24.03;19.50
78839;BME280;68405;47.190;27.558;2023-04-28T07:35:09;100215.61;;;24.26;19.62
78839;BME280;68405;47.190;27.558;2023-04-28T07:37:38;100209.59;;;24.47;18.89
78839;BME280;68405;47.190;27.558;2023-04-28T07:40:09;100206.11;;;24.62;18.83
78839;BME280;68405;47.190;27.558;2023-04-28T07:42:38;100209.34;;;24.52;18.90
78839;BME280;68405;47.190;27.558;2023-04-28T07:45:09;100202.78;;;24.62;18.76
78839;BME280;68405;47.190;27.558;2023-04-28T07:47:38;100204.55;;;25.06;18.50
78839;BME280;68405;47.190;27.558;2023-04-28T07:50:09;100201.66;;;25.12;18.48
78839;BME280;68405;47.190;27.558;2023-04-28T07:52:39;100205.95;;;25.61;17.68
78839;BME280;68405;47.190;27.558;2023-04-28T07:55:09;100202.14;;;26.31;17.32
78839;BME280;68405;47.190;27.558;2023-04-28T07:57:38;100199.41;;;26.76;16.62
78839;BME280;68405;47.190;27.558;2023-04-28T08:00:11;100198.08;;;26.73;16.81
78839;BME280;68405;47.190;27.558;2023-04-28T08:02:41;100193.56;;;26.88;16.59
78839;BME280;68405;47.190;27.558;2023-04-28T08:05:10;100190.13;;;26.68;16.80
78839;BME280;68405;47.190;27.558;2023-04-28T08:07:40;100194.11;;;25.40;17.05
78839;BME280;68405;47.190;27.558;2023-04-28T08:10:12;100190.17;;;25.61;17.27
78839;BME280;68405;47.190;27.558;2023-04-28T08:12:41;100190.45;;;26.22;16.91
78839;BME280;68405;47.190;27.558;2023-04-28T08:15:12;100177.42;;;26.43;15.97
78839;BME280;68405;47.190;27.558;2023-04-28T08:17:42;100173.41;;;26.88;16.23
78839;BME280;68405;47.190;27.558;2023-04-28T08:20:12;100171.38;;;27.20;16.21
78839;BME280;68405;47.190;27.558;2023-04-28T08:22:42;100170.45;;;26.78;16.20
78839;BME280;68405;47.190;27.558;2023-04-28T08:25:12;100169.25;;;27.03;16.34
78839;BME280;68405;47.190;27.558;2023-04-28T08:27:42;100170.07;;;27.17;16.12
78839;BME280;68405;47.190;27.558;2023-04-28T08:30:16;100162.84;;;26.31;16.08
78839;BME280;68405;47.190;27.558;2023-04-28T08:32:51;100166.10;;;25.51;17.14
78839;BME280;68405;47.190;27.558;2023-04-28T08:35:21;100172.63;;;25.73;16.80
78839;BME280;68405;47.190;27.558;2023-04-28T08:37:52;100167.16;;;25.34;16.43
78839;BME280;68405;47.190;27.558;2023-04-28T08:40:22;100166.76;;;25.05;17.30
78839;BME280;68405;47.190;27.558;2023-04-28T08:42:56;100159.67;;;23.85;17.84
78839;BME280;68405;47.190;27.558;2023-04-28T08:45:26;100157.67;;;23.63;18.43
78839;BME280;68405;47.190;27.558;2023-04-28T08:47:59;100157.44;;;23.89;18.23
78839;BME280;68405;47.190;27.558;2023-04-28T08:50:35;100154.82;;;23.73;18.24
78839;BME280;68405;47.190;27.558;2023-04-28T08:53:31;100156.61;;;24.07;17.87
78839;BME280;68405;47.190;27.558;2023-04-28T08:56:06;100156.28;;;23.77;18.35
78839;BME280;68405;47.190;27.558;2023-04-28T08:58:39;100158.58;;;24.49;17.78
78839;BME280;68405;47.190;27.558;2023-04-28T09:01:09;100157.92;;;24.24;17.74
78839;BME280;68405;47.190;27.558;2023-04-28T09:03:38;100153.80;;;23.31;18.19
78839;BME280;68405;47.190;27.558;2023-04-28T09:06:08;100144.90;;;23.75;18.37
78839;BME280;68405;47.190;27.558;2023-04-28T09:08:38;100147.72;;;24.66;18.21
78839;BME280;68405;47.190;27.558;2023-04-28T09:11:09;100144.71;;;24.91;17.47
78839;BME280;68405;47.190;27.558;2023-04-28T09:13:41;100142.38;;;23.78;18.25
78839;BME280;68405;47.190;27.558;2023-04-28T09:16:10;100143.92;;;22.69;19.36
78839;BME280;68405;47.190;27.558;2023-04-28T09:18:40;100136.67;;;21.78;20.04
78839;BME280;68405;47.190;27.558;2023-04-28T09:21:24;100139.12;;;20.37;21.80
78839;BME280;68405;47.190;27.558;2023-04-28T09:23:54;100137.16;;;20.00;22.17
78839;BME280;68405;47.190;27.558;2023-04-28T09:26:23;100136.73;;;19.81;22.42
78839;BME280;68405;47.190;27.558;2023-04-28T09:29:11;100136.84;;;19.66;22.84
78839;BME280;68405;47.190;27.558;2023-04-28T09:31:41;100128.45;;;19.39;23.48
78839;BME280;68405;47.190;27.558;2023-04-28T09:34:11;100135.80;;;18.80;24.36
78839;BME280;68405;47.190;27.558;2023-04-28T09:36:40;100134.02;;;18.75;24.27
78839;BME280;68405;47.190;27.558;2023-04-28T09:39:10;100127.77;;;18.95;23.62
78839;BME280;68405;47.190;27.558;2023-04-28T09:41:41;100135.13;;;19.04;23.17
78839;BME280;68405;47.190;27.558;2023-04-28T09:44:15;100129.36;;;18.96;23.33
78839;BME280;68405;47.190;27.558;2023-04-28T09:46:46;100128.48;;;19.67;22.88
78839;BME280;68405;47.190;27.558;2023-04-28T09:49:16;100124.60;;;20.18;22.27
78839;BME280;68405;47.190;27.558;2023-04-28T09:51:45;100132.10;;;20.05;22.05
78839;BME280;68405;47.190;27.558;2023-04-28T09:54:15;100119.66;;;19.69;21.53
78839;BME280;68405;47.190;27.558;2023-04-28T09:56:47;100117.17;;;19.39;22.53
78839;BME280;68405;47.190;27.558;2023-04-28T09:59:18;100118.30;;;19.54;22.76
78839;BME280;68405;47.190;27.558;2023-04-28T10:01:48;100120.36;;;19.15;22.59
78839;BME280;68405;47.190;27.558;2023-04-28T10:04:18;100119.50;;;19.75;21.90
78839;BME280;68405;47.190;27.558;2023-04-28T10:06:48;100118.33;;;20.37;21.32
78839;BME280;68405;47.190;27.558;2023-04-28T10:09:18;100122.22;;;20.32;20.76
78839;BME280;68405;47.190;27.558;2023-04-28T10:11:54;100119.24;;;19.42;22.15
78839;BME280;68405;47.190;27.558;2023-04-28T10:14:24;100123.17;;;18.66;23.62
78839;BME280;68405;47.190;27.558;2023-04-28T10:16:54;100132.38;;;17.94;24.12
78839;BME280;68405;47.190;27.558;2023-04-28T10:19:24;100127.27;;;18.06;24.02
78839;BME280;68405;47.190;27.558;2023-04-28T10:22:04;100121.16;;;18.22;23.77
78839;BME280;68405;47.190;27.558;2023-04-28T10:24:52;100117.55;;;18.49;23.63
78839;BME280;68405;47.190;27.558;2023-04-28T10:27:31;100114.27;;;18.56;23.51
78839;BME280;68405;47.190;27.558;2023-04-28T10:30:14;100124.59;;;18.34;23.81
78839;BME280;68405;47.190;27.558;2023-04-28T10:32:44;100116.64;;;18.27;23.83
78839;BME280;68405;47.190;27.558;2023-04-28T10:35:41;100118.11;;;18.54;23.30
78839;BME280;68405;47.190;27.558;2023-04-28T10:38:11;100109.90;;;19.08;23.21
78839;BME280;68405;47.190;27.558;2023-04-28T10:40:42;100110.91;;;19.27;22.97
78839;BME280;68405;47.190;27.558;2023-04-28T10:43:12;100110.95;;;19.18;23.46
78839;BME280;68405;47.190;27.558;2023-04-28T10:46:06;100112.36;;;18.78;23.68
78839;BME280;68405;47.190;27.558;2023-04-28T10:49:04;100113.62;;;18.16;24.85
78839;BME280;68405;47.190;27.558;2023-04-28T10:51:34;100113.96;;;18.05;25.11
78839;BME280;68405;47.190;27.558;2023-04-28T10:54:14;100115.33;;;17.70;24.23
78839;BME280;68405;47.190;27.558;2023-04-28T10:57:17;100106.24;;;17.84;24.33
78839;BME280;68405;47.190;27.558;2023-04-28T10:59:47;100105.08;;;17.86;25.19
78839;BME280;68405;47.190;27.558;2023-04-28T11:05:17;100100.36;;;17.50;25.70
78839;BME280;68405;47.190;27.558;2023-04-28T11:11:17;100108.51;;;16.92;24.80
78839;BME280;68405;47.190;27.558;2023-04-28T11:13:47;100109.47;;;16.84;25.31
78839;BME280;68405;47.190;27.558;2023-04-28T11:16:18;100109.90;;;16.76;25.78
78839;BME280;68405;47.190;27.558;2023-04-28T11:18:56;100114.24;;;16.54;26.72
78839;BME280;68405;47.190;27.558;2023-04-28T11:21:26;100112.62;;;16.43;27.23
78839;BME280;68405;47.190;27.558;2023-04-28T11:23:59;100114.72;;;16.33;27.54
78839;BME280;68405;47.190;27.558;2023-04-28T11:26:28;100113.23;;;16.25;27.31
78839;BME280;68405;47.190;27.558;2023-04-28T11:28:58;100114.92;;;16.13;27.30
78839;BME280;68405;47.190;27.558;2023-04-28T11:31:27;100109.52;;;16.06;27.20
78839;BME280;68405;47.190;27.558;2023-04-28T11:34:03;100108.31;;;16.09;27.19
78839;BME280;68405;47.190;27.558;2023-04-28T11:36:35;100111.17;;;16.21;27.87
78839;BME280;68405;47.190;27.558;2023-04-28T11:39:07;100110.50;;;16.24;28.10
78839;BME280;68405;47.190;27.558;2023-04-28T11:41:37;100110.58;;;16.41;27.99
78839;BME280;68405;47.190;27.558;2023-04-28T11:44:13;100112.77;;;16.37;27.79
78839;BME280;68405;47.190;27.558;2023-04-28T11:46:47;100110.13;;;16.40;27.41
78839;BME280;68405;47.190;27.558;2023-04-28T11:49:19;100109.81;;;16.30;27.33
78839;BME280;68405;47.190;27.558;2023-04-28T11:51:48;100109.69;;;15.99;27.79
78839;BME280;68405;47.190;27.558;2023-04-28T11:54:24;100108.34;;;15.71;28.37
78839;BME280;68405;47.190;27.558;2023-04-28T11:56:54;100105.14;;;15.72;29.06
78839;BME280;68405;47.190;27.558;2023-04-28T11:59:27;100109.09;;;15.64;29.28
78839;BME280;68405;47.190;27.558;2023-04-28T12:02:02;100110.42;;;15.44;29.20
78839;BME280;68405;47.190;27.558;2023-04-28T12:04:32;100112.02;;;15.27;29.10
78839;BME280;68405;47.190;27.558;2023-04-28T12:07:04;100110.34;;;15.25;28.96
78839;BME280;68405;47.190;27.558;2023-04-28T12:09:34;100107.92;;;15.69;28.76
78839;BME280;68405;47.190;27.558;2023-04-28T12:12:05;100099.12;;;16.17;28.44
78839;BME280;68405;47.190;27.558;2023-04-28T12:14:53;100096.68;;;16.33;28.35
78839;BME280;68405;47.190;27.558;2023-04-28T12:17:26;100095.20;;;16.44;27.58
78839;BME280;68405;47.190;27.558;2023-04-28T12:19:56;100087.92;;;16.55;27.64
78839;BME280;68405;47.190;27.558;2023-04-28T12:22:26;100083.05;;;16.42;27.01
78839;BME280;68405;47.190;27.558;2023-04-28T12:25:05;100084.74;;;16.07;26.86
78839;BME280;68405;47.190;27.558;2023-04-28T12:27:35;100082.55;;;15.93;26.49
78839;BME280;68405;47.190;27.558;2023-04-28T12:30:25;100074.85;;;15.62;26.90
78839;BME280;68405;47.190;27.558;2023-04-28T12:32:54;100074.21;;;15.61;27.65
78839;BME280;68405;47.190;27.558;2023-04-28T12:35:24;100071.92;;;15.98;28.23
78839;BME280;68405;47.190;27.558;2023-04-28T12:37:53;100075.13;;;16.24;29.04
78839;BME280;68405;47.190;27.558;2023-04-28T12:40:23;100073.16;;;16.11;28.29
78839;BME280;68405;47.190;27.558;2023-04-28T12:42:51;100078.25;;;16.07;27.41
78839;BME280;68405;47.190;27.558;2023-04-28T12:45:21;100068.03;;;16.12;27.10
78839;BME280;68405;47.190;27.558;2023-04-28T12:47:49;100065.31;;;16.23;27.27
78839;BME280;68405;47.190;27.558;2023-04-28T12:50:19;100059.98;;;16.24;26.19
78839;BME280;68405;47.190;27.558;2023-04-28T12:52:48;100055.71;;;16.63;26.11
78839;BME280;68405;47.190;27.558;2023-04-28T12:55:16;100060.34;;;16.78;25.83
78839;BME280;68405;47.190;27.558;2023-04-28T12:57:45;100059.52;;;16.55;25.97
78839;BME280;68405;47.190;27.558;2023-04-28T13:00:15;100056.90;;;16.29;26.34
78839;BME280;68405;47.190;27.558;2023-04-28T13:02:44;100059.23;;;16.19;26.97
78839;BME280;68405;47.190;27.558;2023-04-28T13:05:12;100060.87;;;16.08;27.66
78839;BME280;68405;47.190;27.558;2023-04-28T13:07:42;100064.45;;;15.83;27.74